createdAt,value
2023-04-23T00:01:13.498Z,87.12
2023-04-23T00:06:13.462Z,87.12
2023-04-23T00:11:13.351Z,88.23
2023-04-23T00:16:13.428Z,86.43
2023-04-23T00:21:13.282Z,86.77
2023-04-23T00:26:16.220Z,85.72
2023-04-23T00:31:13.137Z,87.63
2023-04-23T00:36:13.047Z,87.87
2023-04-23T00:41:12.941Z,88.28
2023-04-23T00:46:13.232Z,88.28
2023-04-23T00:51:12.808Z,88.75
2023-04-23T00:56:12.812Z,88.78
2023-04-23T01:01:12.667Z,87.87
2023-04-23T01:06:12.734Z,87.93
2023-04-23T01:11:12.690Z,87.28
2023-04-23T01:16:12.555Z,86.68
2023-04-23T01:21:12.478Z,87.08
2023-04-23T01:26:15.401Z,87.37
2023-04-23T01:31:12.368Z,89.48
2023-04-23T01:36:12.233Z,88.78
2023-04-23T01:41:12.149Z,87.52
2023-04-23T01:46:12.143Z,87.28
2023-04-23T01:51:12.093Z,87.73
2023-04-23T01:56:12.092Z,87.52
2023-04-23T02:01:11.941Z,86.82
2023-04-23T02:06:12.052Z,86.82
2023-04-23T02:11:11.773Z,87.83
2023-04-23T02:16:12.685Z,87.18
2023-04-23T02:21:11.622Z,87.32
2023-04-23T02:26:14.629Z,86.71
2023-04-23T02:31:11.521Z,88.82
2023-04-23T02:36:11.536Z,87.67
2023-04-23T02:41:11.376Z,87.97
2023-04-23T02:46:11.454Z,86.51
2023-04-23T02:51:11.295Z,87.12
2023-04-23T02:56:11.298Z,86.96
2023-04-23T03:01:11.376Z,86.41
2023-04-23T03:06:11.217Z,86.82
2023-04-23T03:11:11.008Z,87.46
2023-04-23T03:16:11.007Z,87.37
2023-04-23T03:21:18.451Z,87.61
2023-04-23T03:26:13.796Z,87.26
2023-04-23T03:31:10.852Z,88.36
2023-04-23T03:36:10.723Z,88.52
2023-04-23T03:41:10.739Z,87.71
2023-04-23T03:46:10.539Z,86.65
2023-04-23T03:51:10.556Z,86.21
2023-04-23T03:56:10.546Z,85.74
2023-04-23T04:01:10.365Z,87.00
2023-04-23T04:06:10.305Z,88.12
2023-04-23T04:11:10.323Z,87.30
2023-04-23T04:16:10.208Z,86.61
2023-04-23T04:21:10.204Z,86.65
2023-04-23T04:26:13.177Z,86.65
2023-04-23T04:31:09.980Z,86.86
2023-04-23T04:36:09.966Z,86.21
2023-04-23T04:41:09.835Z,86.69
2023-04-23T04:46:09.892Z,86.05
2023-04-23T04:51:09.701Z,86.80
2023-04-23T04:56:09.670Z,87.00
2023-04-23T05:01:09.600Z,87.10
2023-04-23T05:06:09.477Z,87.30
2023-04-23T05:11:09.408Z,87.00
2023-04-23T05:16:09.808Z,85.74
2023-04-23T05:21:09.397Z,84.69
2023-04-23T05:26:12.321Z,82.82
2023-04-23T05:31:09.085Z,82.96
2023-04-23T05:36:10.363Z,81.77
2023-04-23T05:41:09.097Z,80.72
2023-04-23T05:46:09.233Z,80.11
2023-04-23T05:51:09.015Z,79.43
2023-04-23T06:06:26.405Z,76.05
2023-04-23T06:11:26.223Z,75.64
2023-04-23T06:16:26.631Z,73.25
2023-04-23T06:21:25.913Z,72.95
2023-04-23T06:26:25.877Z,72.95
2023-04-23T06:31:25.756Z,72.38
2023-04-23T06:36:25.753Z,71.94
2023-04-23T06:41:25.525Z,72.34
2023-04-23T06:46:25.627Z,74.53
2023-04-23T06:51:25.718Z,79.63
2023-04-23T06:56:28.387Z,84.78
2023-04-23T07:01:25.423Z,88.02
2023-04-23T07:06:25.334Z,86.29
2023-04-23T07:11:25.286Z,84.88
2023-04-23T07:16:25.548Z,84.80
2023-04-23T07:21:25.084Z,81.71
2023-04-23T07:26:25.165Z,80.92
2023-04-23T07:31:25.104Z,82.87
2023-04-23T07:36:24.919Z,80.43
2023-04-23T07:41:24.813Z,78.25
2023-04-23T07:46:25.677Z,73.49
2023-04-23T07:51:24.720Z,73.59
2023-04-23T07:56:27.619Z,72.04
2023-04-23T08:01:24.606Z,73.32
2023-04-23T08:06:24.542Z,71.97
2023-04-23T08:11:24.543Z,69.27
2023-04-23T08:16:24.431Z,69.04
2023-04-23T08:21:24.398Z,67.60
2023-04-23T08:26:24.257Z,66.72
2023-04-23T08:31:26.937Z,64.58
2023-04-23T08:36:24.182Z,62.83
2023-04-23T08:41:24.053Z,63.33
2023-04-23T08:46:23.999Z,55.29
2023-04-23T08:51:24.098Z,56.02
2023-04-23T08:56:27.097Z,56.29
2023-04-23T09:01:25.518Z,57.93
2023-04-23T09:06:24.900Z,58.05
2023-04-23T09:11:23.642Z,55.91
2023-04-23T09:16:23.640Z,58.38
2023-04-23T09:21:23.445Z,52.64
2023-04-23T09:26:23.476Z,54.76
2023-04-23T09:31:23.392Z,57.60
2023-04-23T09:36:23.328Z,56.62
2023-04-23T09:41:23.264Z,56.07
2023-04-23T09:46:23.265Z,57.90
2023-04-23T09:51:23.250Z,54.96
2023-04-23T09:56:26.057Z,53.07
2023-04-23T10:01:23.278Z,54.53
2023-04-23T10:06:40.800Z,53.85
2023-04-23T10:11:25.364Z,54.38
2023-04-23T10:16:25.514Z,54.33
2023-04-23T10:21:24.628Z,52.55
2023-04-23T10:26:22.603Z,50.33
2023-04-23T10:31:22.680Z,51.91
2023-04-23T10:36:22.516Z,51.39
2023-04-23T10:41:22.488Z,51.36
2023-04-23T10:46:22.472Z,48.83
2023-04-23T10:56:26.321Z,49.08
2023-04-23T11:01:22.345Z,50.51
2023-04-23T11:06:22.136Z,48.38
2023-04-23T11:11:22.041Z,48.43
2023-04-23T11:16:22.449Z,47.11
2023-04-23T11:21:22.000Z,47.24
2023-04-23T11:26:21.872Z,47.74
2023-04-23T11:31:21.860Z,46.44
2023-04-23T11:36:21.786Z,44.32
2023-04-23T11:41:21.698Z,44.65
2023-04-23T11:46:21.672Z,43.83
2023-04-23T11:51:36.677Z,44.85
2023-04-23T11:56:24.653Z,44.95
2023-04-23T12:01:21.385Z,45.74
2023-04-23T12:06:21.363Z,42.87
2023-04-23T12:11:21.213Z,42.57
2023-04-23T12:16:21.292Z,44.47
2023-04-23T12:21:22.239Z,42.61
2023-04-23T12:26:21.190Z,44.18
2023-04-23T12:31:22.039Z,43.90
2023-04-23T12:36:21.071Z,46.27
2023-04-23T12:41:20.915Z,42.11
2023-04-23T12:46:21.006Z,41.85
2023-04-23T12:51:20.756Z,43.40
2023-04-23T12:56:23.865Z,44.51
2023-04-23T13:01:20.663Z,45.20
2023-04-23T13:06:20.641Z,43.90
2023-04-23T13:11:20.458Z,43.15
2023-04-23T13:16:20.612Z,43.41
2023-04-23T13:21:20.305Z,40.88
2023-04-23T13:26:20.275Z,41.09
2023-04-23T13:31:20.221Z,42.10
2023-04-23T13:36:20.247Z,40.83
2023-04-23T13:41:20.094Z,40.73
2023-04-23T13:46:20.106Z,42.21
2023-04-23T13:51:34.147Z,39.32
2023-04-23T13:56:24.067Z,42.37
2023-04-23T14:01:19.961Z,41.60
2023-04-23T14:06:19.822Z,42.27
2023-04-23T14:11:19.684Z,40.80
2023-04-23T14:16:19.695Z,38.48
2023-04-23T14:21:19.590Z,42.37
2023-04-23T14:26:19.571Z,37.30
2023-04-23T14:31:19.445Z,38.20
2023-04-23T14:36:19.485Z,33.06
2023-04-23T14:41:19.300Z,33.57
2023-04-23T14:46:19.455Z,37.04
2023-04-23T14:51:19.204Z,35.97
2023-04-23T14:56:22.101Z,36.61
2023-04-23T15:01:19.105Z,35.47
2023-04-23T15:06:18.964Z,36.70
2023-04-23T15:11:18.965Z,31.82
2023-04-23T15:16:23.402Z,33.87
2023-04-23T15:21:19.924Z,32.18
2023-04-23T15:26:18.690Z,31.68
2023-04-23T15:31:18.969Z,32.30
2023-04-23T15:36:19.471Z,36.53
2023-04-23T15:41:18.537Z,34.53
2023-04-23T15:46:18.537Z,40.66
2023-04-23T15:51:18.424Z,37.51
2023-04-23T15:56:21.335Z,39.02
2023-04-23T16:01:18.263Z,39.00
2023-04-23T16:06:18.219Z,39.22
2023-04-23T16:11:18.152Z,39.11
2023-04-23T16:16:18.115Z,39.72
2023-04-23T16:21:18.131Z,41.24
2023-04-23T16:26:18.621Z,40.23
2023-04-23T16:31:17.891Z,41.71
2023-04-23T16:36:17.805Z,40.35
2023-04-23T16:41:17.709Z,40.13
2023-04-23T16:46:17.744Z,39.83
2023-04-23T16:51:17.571Z,41.55
2023-04-23T16:56:20.688Z,42.38
2023-04-23T17:01:17.458Z,40.91
2023-04-23T17:06:17.506Z,41.49
2023-04-23T17:11:17.515Z,41.79
2023-04-23T17:16:17.381Z,42.83
2023-04-23T17:21:17.246Z,43.74
2023-04-23T17:26:17.141Z,45.49
2023-04-23T17:31:17.097Z,43.80
2023-04-23T17:36:17.158Z,46.81
2023-04-23T17:41:16.933Z,48.69
2023-04-23T17:46:16.937Z,51.91
2023-04-23T17:51:16.902Z,53.34
2023-04-23T17:56:19.956Z,54.61
2023-04-23T18:01:16.676Z,55.98
2023-04-23T18:06:16.652Z,58.05
2023-04-23T18:11:16.495Z,57.85
2023-04-23T18:16:16.513Z,57.98
2023-04-23T18:21:16.346Z,58.41
2023-04-23T18:26:16.384Z,59.65
2023-04-23T18:31:16.277Z,60.57
2023-04-23T18:36:16.192Z,60.69
2023-04-23T18:41:16.226Z,60.19
2023-04-23T18:46:16.073Z,61.80
2023-04-23T18:51:15.966Z,63.06
2023-04-23T18:56:18.985Z,63.79
2023-04-23T19:01:15.922Z,64.64
2023-04-23T19:06:15.937Z,63.89
2023-04-23T19:11:15.756Z,64.23
2023-04-23T19:16:15.737Z,65.45
2023-04-23T19:21:15.550Z,65.88
2023-04-23T19:26:15.523Z,66.08
2023-04-23T19:31:15.459Z,68.28
2023-04-23T19:36:15.466Z,68.92
2023-04-23T19:41:15.392Z,68.82
2023-04-23T19:46:15.353Z,69.67
2023-04-23T19:51:15.204Z,68.52
2023-04-23T19:56:18.103Z,68.41
2023-04-23T20:01:15.022Z,68.85
2023-04-23T20:06:15.012Z,68.41
2023-04-23T20:11:14.873Z,68.89
2023-04-23T20:16:15.338Z,69.46
2023-04-23T20:21:14.772Z,70.58
2023-04-23T20:26:14.868Z,70.68
2023-04-23T20:31:14.657Z,69.46
2023-04-23T20:36:14.720Z,69.53
2023-04-23T20:41:14.526Z,70.18
2023-04-23T20:46:14.542Z,70.28
2023-04-23T20:51:14.383Z,70.35
2023-04-23T20:56:17.381Z,69.13
2023-04-23T21:01:14.304Z,69.87
2023-04-23T21:06:14.229Z,70.04
2023-04-23T21:11:14.106Z,71.50
2023-04-23T21:16:14.125Z,68.99
2023-04-23T21:21:14.109Z,67.27
2023-04-23T21:26:13.993Z,66.33
2023-04-23T21:31:13.992Z,66.94
2023-04-23T21:36:14.250Z,70.48
2023-04-23T21:41:13.754Z,76.31
2023-04-23T21:46:13.663Z,82.10
2023-04-23T21:51:13.573Z,84.88
2023-04-23T21:56:16.559Z,87.47
2023-04-23T22:01:13.495Z,88.83
2023-04-23T22:06:13.453Z,88.06
2023-04-23T22:11:13.348Z,88.98
2023-04-23T22:16:26.848Z,88.83
2023-04-23T22:21:14.345Z,89.14
2023-04-23T22:26:13.236Z,88.69
2023-04-23T22:31:13.193Z,88.48
2023-04-23T22:36:13.007Z,89.03
2023-04-23T22:41:13.169Z,89.75
2023-04-23T22:46:12.949Z,89.00
2023-04-23T22:51:12.899Z,88.83
2023-04-23T22:56:15.805Z,88.79
2023-04-23T23:01:12.841Z,88.93
2023-04-23T23:06:12.771Z,88.42
2023-04-23T23:11:12.621Z,88.46
2023-04-23T23:16:12.671Z,89.18
2023-04-23T23:21:12.434Z,89.12
2023-04-23T23:26:12.432Z,88.31
2023-04-23T23:31:12.458Z,88.92
2023-04-23T23:36:12.359Z,88.61
2023-04-23T23:41:12.207Z,89.06
2023-04-23T23:46:12.302Z,89.86
2023-04-23T23:51:12.148Z,89.81
2023-04-23T23:56:15.131Z,89.86
